createdAt,value
2022-12-20T00:02:11.306Z,98735.88
2022-12-20T00:04:38.035Z,98735.66
2022-12-20T00:07:04.785Z,98728.06
2022-12-20T00:09:31.501Z,98729.84
2022-12-20T00:11:58.962Z,98734.66
2022-12-20T00:14:25.617Z,98725.84
2022-12-20T00:16:52.249Z,98733.66
2022-12-20T00:19:18.961Z,98725.31
2022-12-20T00:21:45.585Z,98722.03
2022-12-20T00:24:12.276Z,98725.41
2022-12-20T00:26:38.933Z,98732.16
2022-12-20T00:29:05.628Z,98719.91
2022-12-20T00:31:32.449Z,98716.03
2022-12-20T00:33:59.144Z,98716.47
2022-12-20T00:36:25.827Z,98717.38
2022-12-20T00:38:52.472Z,98709.13
2022-12-20T00:41:19.176Z,98713.06
2022-12-20T00:43:45.844Z,98706.84
2022-12-20T00:46:12.510Z,98709.78
2022-12-20T00:48:39.216Z,98707.56
2022-12-20T00:51:05.858Z,98700.28
2022-12-20T00:53:32.505Z,98693.63
2022-12-20T00:55:59.157Z,98697.97
2022-12-20T00:58:25.851Z,98705.78
2022-12-20T01:00:56.502Z,98702.72
2022-12-20T01:03:23.982Z,98698.41
2022-12-20T01:05:50.719Z,98697.19
2022-12-20T01:08:17.411Z,98683.06
2022-12-20T01:10:44.065Z,98689.59
2022-12-20T01:13:10.753Z,98687.22
2022-12-20T01:15:37.500Z,98694.31
2022-12-20T01:18:04.205Z,98693.03
2022-12-20T01:20:30.870Z,98681.97
2022-12-20T01:22:57.565Z,98695.91
2022-12-20T01:25:24.282Z,98693.66
2022-12-20T01:27:54.074Z,98690.91
2022-12-20T01:30:20.808Z,98685.19
2022-12-20T01:32:47.488Z,98676.75
2022-12-20T01:35:14.180Z,98674.00
2022-12-20T01:37:40.884Z,98676.38
2022-12-20T01:40:07.596Z,98663.22
2022-12-20T01:42:34.356Z,98665.53
2022-12-20T01:45:01.052Z,98668.69
2022-12-20T01:47:27.727Z,98668.22
2022-12-20T01:49:54.404Z,98659.22
2022-12-20T01:52:21.100Z,98654.47
2022-12-20T01:54:47.798Z,98648.28
2022-12-20T01:57:14.604Z,98646.38
2022-12-20T01:59:41.325Z,98645.16
2022-12-20T02:02:08.082Z,98642.56
2022-12-20T02:04:34.846Z,98640.31
2022-12-20T02:07:01.516Z,98637.28
2022-12-20T02:09:28.247Z,98627.56
2022-12-20T02:11:54.982Z,98628.41
2022-12-20T02:14:21.602Z,98633.75
2022-12-20T02:16:49.593Z,98637.47
2022-12-20T02:19:16.259Z,98633.31
2022-12-20T02:21:42.964Z,98623.09
2022-12-20T02:24:09.825Z,98620.59
2022-12-20T02:26:36.459Z,98623.91
2022-12-20T02:29:03.257Z,98618.63
2022-12-20T02:31:29.984Z,98608.72
2022-12-20T02:33:59.015Z,98613.47
2022-12-20T02:36:25.655Z,98606.28
2022-12-20T02:38:52.298Z,98605.97
2022-12-20T02:41:18.958Z,98600.03
2022-12-20T02:43:45.691Z,98598.31
2022-12-20T02:46:12.412Z,98601.31
2022-12-20T02:48:39.120Z,98593.03
2022-12-20T02:51:05.823Z,98596.75
2022-12-20T02:53:32.512Z,98583.13
2022-12-20T02:55:59.157Z,98588.03
2022-12-20T02:58:25.971Z,98586.22
2022-12-20T03:00:52.645Z,98584.22
2022-12-20T03:03:19.331Z,98584.78
2022-12-20T03:05:46.100Z,98579.78
2022-12-20T03:08:12.762Z,98587.19
2022-12-20T03:10:39.432Z,98577.53
2022-12-20T03:13:06.091Z,98576.94
2022-12-20T03:15:32.828Z,98577.69
2022-12-20T03:17:59.576Z,98569.81
2022-12-20T03:20:26.300Z,98570.06
2022-12-20T03:22:53.016Z,98561.50
2022-12-20T03:25:19.684Z,98561.44
2022-12-20T03:27:46.367Z,98556.03
2022-12-20T03:30:13.092Z,98556.53
2022-12-20T03:32:39.753Z,98559.38
2022-12-20T03:35:06.494Z,98565.44
2022-12-20T03:37:33.150Z,98563.13
2022-12-20T03:39:59.860Z,98557.06
2022-12-20T03:42:26.568Z,98557.06
2022-12-20T03:44:53.294Z,98555.19
2022-12-20T03:47:20.017Z,98563.72
2022-12-20T03:49:46.741Z,98553.66
2022-12-20T03:52:13.365Z,98553.78
2022-12-20T03:54:40.091Z,98551.63
2022-12-20T03:57:06.783Z,98553.44
2022-12-20T03:59:33.618Z,98552.31
2022-12-20T04:02:00.457Z,98548.03
2022-12-20T04:04:27.250Z,98545.94
2022-12-20T04:06:53.992Z,98539.47
2022-12-20T04:09:20.671Z,98544.00
2022-12-20T04:11:47.344Z,98551.22
2022-12-20T04:14:14.013Z,98547.09
2022-12-20T04:16:40.808Z,98549.91
2022-12-20T04:19:07.702Z,98558.16
2022-12-20T04:21:34.428Z,98560.53
2022-12-20T04:24:01.120Z,98558.63
2022-12-20T04:26:27.755Z,98551.44
2022-12-20T04:28:54.416Z,98544.38
2022-12-20T04:31:24.182Z,98542.53
2022-12-20T04:33:51.176Z,98539.25
2022-12-20T04:36:17.898Z,98537.34
2022-12-20T04:38:44.593Z,98534.13
2022-12-20T04:41:11.206Z,98530.28
2022-12-20T04:43:37.923Z,98546.75
2022-12-20T04:46:04.603Z,98549.84
2022-12-20T04:48:56.067Z,98541.50
2022-12-20T04:51:17.909Z,98531.53
2022-12-20T04:53:44.629Z,98528.06
2022-12-20T04:56:11.303Z,98532.28
2022-12-20T04:58:37.928Z,98534.06
2022-12-20T05:01:04.635Z,98537.28
2022-12-20T05:03:31.395Z,98529.97
2022-12-20T05:05:58.108Z,98538.28
2022-12-20T05:08:24.766Z,98532.75
2022-12-20T05:10:51.463Z,98534.06
2022-12-20T05:13:18.124Z,98525.66
2022-12-20T05:15:44.862Z,98526.47
2022-12-20T05:18:11.569Z,98527.47
2022-12-20T05:20:38.226Z,98536.72
2022-12-20T05:23:04.896Z,98526.19
2022-12-20T05:25:31.654Z,98522.28
2022-12-20T05:27:58.367Z,98517.44
2022-12-20T05:30:25.023Z,98512.47
2022-12-20T05:32:51.727Z,98511.00
2022-12-20T05:35:18.411Z,98510.19
2022-12-20T05:37:45.238Z,98509.88
2022-12-20T05:40:11.921Z,98519.78
2022-12-20T05:42:38.586Z,98511.91
2022-12-20T05:45:05.311Z,98514.91
2022-12-20T05:47:32.019Z,98510.00
2022-12-20T05:49:58.731Z,98504.56
2022-12-20T05:52:25.435Z,98505.81
2022-12-20T05:54:52.112Z,98506.84
2022-12-20T05:57:18.758Z,98506.66
2022-12-20T05:59:45.430Z,98504.13
2022-12-20T06:02:12.280Z,98505.13
2022-12-20T06:04:39.066Z,98505.03
2022-12-20T06:07:05.787Z,98500.91
2022-12-20T06:09:32.509Z,98494.38
2022-12-20T06:11:59.186Z,98490.13
2022-12-20T06:14:25.838Z,98494.22
2022-12-20T06:16:52.611Z,98489.34
2022-12-20T06:19:21.678Z,98489.56
2022-12-20T06:21:48.603Z,98487.34
2022-12-20T06:24:15.250Z,98480.84
2022-12-20T06:26:41.939Z,98496.25
2022-12-20T06:29:08.640Z,98504.69
2022-12-20T06:31:35.348Z,98511.91
2022-12-20T06:34:02.034Z,98513.03
2022-12-20T06:36:28.718Z,98507.13
2022-12-20T06:38:55.405Z,98500.09
2022-12-20T06:41:22.142Z,98509.59
2022-12-20T06:43:48.826Z,98509.66
2022-12-20T06:46:15.567Z,98501.81
2022-12-20T06:48:42.313Z,98493.69
2022-12-20T06:51:09.031Z,98498.53
2022-12-20T06:53:35.845Z,98504.63
2022-12-20T06:56:02.538Z,98513.50
2022-12-20T06:58:29.229Z,98514.06
2022-12-20T07:00:56.030Z,98508.56
2022-12-20T07:03:22.884Z,98503.56
2022-12-20T07:05:49.663Z,98501.25
2022-12-20T07:08:16.406Z,98488.91
2022-12-20T07:10:43.132Z,98496.03
2022-12-20T07:13:10.123Z,98495.78
2022-12-20T07:15:36.812Z,98494.09
2022-12-20T07:18:03.637Z,98498.50
2022-12-20T07:20:30.424Z,98508.25
2022-12-20T07:22:57.241Z,98501.69
2022-12-20T07:25:23.925Z,98495.25
2022-12-20T07:27:51.454Z,98494.88
2022-12-20T07:30:18.131Z,98502.75
2022-12-20T07:32:44.844Z,98502.25
2022-12-20T07:35:11.560Z,98509.06
2022-12-20T07:37:38.224Z,98520.22
2022-12-20T07:40:04.895Z,98524.03
2022-12-20T07:42:36.092Z,98523.88
2022-12-20T07:45:06.272Z,98511.09
2022-12-20T07:47:32.934Z,98495.25
2022-12-20T07:49:59.593Z,98485.06
2022-12-20T07:52:26.344Z,98488.88
2022-12-20T07:54:53.055Z,98489.97
2022-12-20T07:57:19.804Z,98497.13
2022-12-20T07:59:46.671Z,98495.25
2022-12-20T08:02:13.618Z,98490.53
2022-12-20T08:04:40.441Z,98489.81
2022-12-20T08:07:07.151Z,98492.78
2022-12-20T08:09:33.821Z,98486.03
2022-12-20T08:12:00.547Z,98497.38
2022-12-20T08:14:27.282Z,98504.63
2022-12-20T08:16:54.099Z,98501.31
2022-12-20T08:19:20.861Z,98485.00
2022-12-20T08:21:47.639Z,98480.34
2022-12-20T08:24:14.327Z,98477.81
2022-12-20T08:26:41.030Z,98480.72
2022-12-20T08:29:07.714Z,98479.09
2022-12-20T08:31:34.414Z,98481.09
2022-12-20T08:34:01.069Z,98479.69
2022-12-20T08:36:27.766Z,98473.19
2022-12-20T08:38:54.455Z,98479.63
2022-12-20T08:41:21.161Z,98481.63
2022-12-20T08:43:47.835Z,98470.09
2022-12-20T08:46:14.565Z,98474.63
2022-12-20T08:48:41.283Z,98480.72
2022-12-20T08:51:08.026Z,98472.38
2022-12-20T08:53:34.743Z,98477.38
2022-12-20T08:56:01.433Z,98473.72
2022-12-20T08:58:28.079Z,98471.88
2022-12-20T09:00:55.707Z,98470.00
2022-12-20T09:03:22.487Z,98468.34
2022-12-20T09:05:49.189Z,98475.91
2022-12-20T09:08:15.882Z,98472.63
2022-12-20T09:10:42.538Z,98470.41
2022-12-20T09:13:09.246Z,98466.56
2022-12-20T09:15:35.931Z,98467.66
2022-12-20T09:18:02.676Z,98468.44
2022-12-20T09:20:29.310Z,98466.69
2022-12-20T09:22:56.005Z,98463.38
2022-12-20T09:25:22.706Z,98456.69
2022-12-20T09:27:49.396Z,98455.34
2022-12-20T09:30:16.087Z,98450.63
2022-12-20T09:32:42.757Z,98457.72
2022-12-20T09:35:09.487Z,98463.38
2022-12-20T09:37:36.196Z,98460.41
2022-12-20T09:40:02.875Z,98457.56
2022-12-20T09:42:29.591Z,98441.03
2022-12-20T09:44:56.300Z,98448.38
2022-12-20T09:47:22.944Z,98439.88
2022-12-20T09:49:49.638Z,98446.28
2022-12-20T09:52:16.374Z,98433.03
2022-12-20T09:54:43.113Z,98440.16
2022-12-20T09:57:09.788Z,98433.53
2022-12-20T09:59:40.375Z,98434.91
2022-12-20T10:02:44.092Z,98430.34
2022-12-20T10:04:55.792Z,98428.44
2022-12-20T10:07:22.559Z,98429.66
2022-12-20T10:09:49.230Z,98434.50
2022-12-20T10:12:15.876Z,98428.63
2022-12-20T10:14:42.582Z,98430.72
2022-12-20T10:17:09.285Z,98430.22
2022-12-20T10:19:36.008Z,98422.06
2022-12-20T10:22:02.622Z,98420.94
2022-12-20T10:24:29.305Z,98421.28
2022-12-20T10:26:56.032Z,98407.31
2022-12-20T10:29:22.711Z,98408.66
2022-12-20T10:31:49.445Z,98408.84
2022-12-20T10:34:16.177Z,98402.41
2022-12-20T10:36:42.837Z,98396.50
2022-12-20T10:39:09.469Z,98381.38
2022-12-20T10:41:36.135Z,98380.13
2022-12-20T10:44:02.841Z,98375.19
2022-12-20T10:46:29.618Z,98369.63
2022-12-20T10:48:56.356Z,98368.69
2022-12-20T10:51:23.045Z,98357.97
2022-12-20T10:53:49.715Z,98353.63
2022-12-20T10:56:16.404Z,98347.63
2022-12-20T10:58:43.060Z,98348.53
2022-12-20T11:01:09.795Z,98347.72
2022-12-20T11:03:36.624Z,98340.28
2022-12-20T11:06:04.254Z,98335.09
2022-12-20T11:08:40.444Z,98330.81
2022-12-20T11:11:11.819Z,98331.13
2022-12-20T11:13:38.472Z,98319.50
2022-12-20T11:16:05.123Z,98314.50
2022-12-20T11:18:31.866Z,98311.66
2022-12-20T11:20:58.561Z,98308.94
2022-12-20T11:23:25.177Z,98308.13
2022-12-20T11:25:51.836Z,98307.91
2022-12-20T11:28:18.489Z,98297.38
2022-12-20T11:30:45.417Z,98296.06
2022-12-20T11:33:12.116Z,98300.53
2022-12-20T11:35:38.801Z,98300.53
2022-12-20T11:38:09.564Z,98289.84
2022-12-20T11:40:36.517Z,98289.69
2022-12-20T11:43:03.950Z,98274.59
2022-12-20T11:45:30.631Z,98282.59
2022-12-20T11:47:57.474Z,98279.91
2022-12-20T11:50:24.106Z,98278.47
2022-12-20T11:52:50.772Z,98274.78
2022-12-20T11:55:17.479Z,98273.19
2022-12-20T11:58:16.494Z,98276.34
2022-12-20T12:00:30.796Z,98271.88
2022-12-20T12:02:58.741Z,98275.97
2022-12-20T12:05:25.735Z,98255.94
2022-12-20T12:07:52.452Z,98261.13
2022-12-20T12:10:19.097Z,98251.78
2022-12-20T12:12:46.083Z,98255.31
2022-12-20T12:15:16.316Z,98250.47
2022-12-20T12:17:43.832Z,98248.41
2022-12-20T12:20:10.489Z,98248.00
2022-12-20T12:22:37.211Z,98247.41
2022-12-20T12:25:03.871Z,98252.38
2022-12-20T12:27:30.572Z,98244.03
2022-12-20T12:29:57.252Z,98248.19
2022-12-20T12:32:24.867Z,98253.78
2022-12-20T12:34:51.558Z,98251.97
2022-12-20T12:37:18.366Z,98255.16
2022-12-20T12:39:45.319Z,98250.16
2022-12-20T12:42:12.089Z,98253.28
2022-12-20T12:44:38.755Z,98252.13
2022-12-20T12:47:05.469Z,98242.44
2022-12-20T12:49:32.117Z,98247.81
2022-12-20T12:51:58.915Z,98248.63
2022-12-20T12:54:25.685Z,98256.84
2022-12-20T12:56:52.478Z,98249.06
2022-12-20T12:59:19.331Z,98249.72
2022-12-20T13:01:46.144Z,98243.16
2022-12-20T13:04:13.048Z,98247.19
2022-12-20T13:06:39.731Z,98245.59
2022-12-20T13:09:06.377Z,98251.16
2022-12-20T13:11:33.003Z,98250.75
2022-12-20T13:13:59.673Z,98250.00
2022-12-20T13:16:48.217Z,98243.25
2022-12-20T13:19:12.958Z,98243.13
2022-12-20T13:21:39.717Z,98249.19
2022-12-20T13:24:09.277Z,98244.38
2022-12-20T13:26:35.995Z,98248.50
2022-12-20T13:29:02.722Z,98236.31
2022-12-20T13:31:29.689Z,98242.94
2022-12-20T13:33:56.403Z,98239.16
2022-12-20T13:36:23.094Z,98255.47
2022-12-20T13:38:49.766Z,98247.09
2022-12-20T13:41:16.476Z,98243.97
2022-12-20T13:43:43.131Z,98245.50
2022-12-20T13:46:09.793Z,98243.16
2022-12-20T13:48:36.494Z,98239.50
2022-12-20T13:51:03.187Z,98238.50
2022-12-20T13:53:29.819Z,98242.56
2022-12-20T13:55:56.493Z,98236.84
2022-12-20T13:58:23.136Z,98236.88
2022-12-20T14:00:49.958Z,98229.44
2022-12-20T14:03:16.955Z,98233.72
2022-12-20T14:05:43.766Z,98219.84
2022-12-20T14:08:10.802Z,98216.84
2022-12-20T14:10:37.437Z,98208.72
2022-12-20T14:13:04.109Z,98215.97
2022-12-20T14:15:30.738Z,98197.75
2022-12-20T14:17:57.398Z,98194.69
2022-12-20T14:20:24.055Z,98198.25
2022-12-20T14:22:50.699Z,98187.47
2022-12-20T14:25:17.395Z,98192.91
2022-12-20T14:27:44.069Z,98189.69
2022-12-20T14:30:10.708Z,98192.91
2022-12-20T14:32:37.387Z,98196.75
2022-12-20T14:35:04.027Z,98204.00
2022-12-20T14:37:30.662Z,98197.38
2022-12-20T14:39:57.309Z,98195.09
2022-12-20T14:42:23.973Z,98192.16
2022-12-20T14:44:50.702Z,98194.91
2022-12-20T14:47:17.404Z,98191.97
2022-12-20T14:49:44.276Z,98188.28
2022-12-20T14:52:10.878Z,98188.88
2022-12-20T14:55:06.937Z,98191.94
2022-12-20T14:57:24.260Z,98187.09
2022-12-20T14:59:50.931Z,98180.97
2022-12-20T15:02:17.664Z,98173.88
2022-12-20T15:04:44.479Z,98166.91
2022-12-20T15:07:11.171Z,98172.81
2022-12-20T15:09:37.833Z,98171.88
2022-12-20T15:12:04.717Z,98172.94
2022-12-20T15:14:31.351Z,98179.91
2022-12-20T15:16:58.006Z,98164.44
2022-12-20T15:19:24.705Z,98171.53
2022-12-20T15:21:51.459Z,98174.56
2022-12-20T15:24:18.101Z,98170.06
2022-12-20T15:26:44.804Z,98178.78
2022-12-20T15:29:11.676Z,98165.94
2022-12-20T15:31:38.347Z,98168.50
2022-12-20T15:34:04.991Z,98170.81
2022-12-20T15:36:31.727Z,98170.88
2022-12-20T15:39:14.726Z,98165.31
2022-12-20T15:41:42.020Z,98159.59
2022-12-20T15:44:08.936Z,98161.97
2022-12-20T15:46:35.640Z,98164.16
2022-12-20T15:49:02.310Z,98160.59
2022-12-20T15:51:28.968Z,98173.84
2022-12-20T15:53:55.691Z,98161.06
2022-12-20T15:56:22.323Z,98166.97
2022-12-20T15:58:48.947Z,98165.50
2022-12-20T16:01:15.656Z,98162.34
2022-12-20T16:03:42.632Z,98154.47
2022-12-20T16:06:09.460Z,98156.59
2022-12-20T16:08:36.145Z,98150.69
2022-12-20T16:11:02.839Z,98151.31
2022-12-20T16:13:29.585Z,98150.50
2022-12-20T16:15:56.512Z,98164.09
2022-12-20T16:18:23.199Z,98166.19
2022-12-20T16:20:49.909Z,98165.78
2022-12-20T16:23:16.580Z,98160.22
2022-12-20T16:25:43.205Z,98160.28
2022-12-20T16:28:10.648Z,98150.91
2022-12-20T16:30:37.339Z,98158.44
2022-12-20T16:33:04.010Z,98158.22
2022-12-20T16:35:30.684Z,98156.66
2022-12-20T16:37:57.343Z,98154.13
2022-12-20T16:40:24.007Z,98170.75
2022-12-20T16:42:50.686Z,98172.22
2022-12-20T16:45:17.394Z,98161.22
2022-12-20T16:47:44.027Z,98163.03
2022-12-20T16:50:10.757Z,98170.00
2022-12-20T16:52:37.488Z,98169.84
2022-12-20T16:55:04.168Z,98157.91
2022-12-20T16:57:30.892Z,98140.75
2022-12-20T16:59:57.616Z,98138.78
2022-12-20T17:02:24.370Z,98141.34
2022-12-20T17:04:51.268Z,98129.00
2022-12-20T17:07:17.899Z,98141.56
2022-12-20T17:12:28.607Z,98130.69
2022-12-20T17:14:55.299Z,98144.38
2022-12-20T17:17:22.046Z,98146.22
2022-12-20T17:19:48.731Z,98136.94
2022-12-20T17:22:24.665Z,98147.81
2022-12-20T17:24:51.468Z,98140.81
2022-12-20T17:27:18.174Z,98144.06
2022-12-20T17:29:44.819Z,98149.63
2022-12-20T17:32:11.547Z,98150.56
2022-12-20T17:34:38.240Z,98145.41
2022-12-20T17:37:04.887Z,98149.38
2022-12-20T17:39:31.530Z,98149.22
2022-12-20T17:41:58.190Z,98148.81
2022-12-20T17:44:24.845Z,98141.16
2022-12-20T17:46:51.500Z,98134.63
2022-12-20T17:49:18.229Z,98148.50
2022-12-20T17:51:44.936Z,98161.22
2022-12-20T17:54:11.595Z,98178.84
2022-12-20T17:56:38.325Z,98183.50
2022-12-20T17:59:05.015Z,98165.97
2022-12-20T18:01:31.881Z,98165.31
2022-12-20T18:04:04.091Z,98157.19
2022-12-20T18:06:31.532Z,98149.78
2022-12-20T18:08:58.213Z,98153.03
2022-12-20T18:11:24.934Z,98155.88
2022-12-20T18:13:51.593Z,98153.66
2022-12-20T18:16:18.262Z,98142.56
2022-12-20T18:18:44.933Z,98150.31
2022-12-20T18:21:11.577Z,98156.84
2022-12-20T18:23:38.285Z,98141.78
2022-12-20T18:26:04.986Z,98147.56
2022-12-20T18:28:31.775Z,98140.06
2022-12-20T18:30:58.506Z,98136.91
2022-12-20T18:33:25.171Z,98134.41
2022-12-20T18:35:51.813Z,98135.38
2022-12-20T18:38:18.528Z,98139.72
2022-12-20T18:40:45.227Z,98136.63
2022-12-20T18:43:11.904Z,98128.22
2022-12-20T18:45:38.694Z,98127.09
2022-12-20T18:48:05.737Z,98137.66
2022-12-20T18:50:32.441Z,98136.69
2022-12-20T18:53:01.608Z,98125.88
2022-12-20T18:55:28.615Z,98120.72
2022-12-20T18:57:55.333Z,98124.41
2022-12-20T19:00:21.993Z,98115.75
2022-12-20T19:02:48.771Z,98111.63
2022-12-20T19:05:15.540Z,98118.00
2022-12-20T19:07:42.270Z,98107.72
2022-12-20T19:10:09.128Z,98106.66
2022-12-20T19:12:35.786Z,98094.22
2022-12-20T19:15:02.532Z,98089.50
2022-12-20T19:17:29.162Z,98078.28
2022-12-20T19:19:55.871Z,98080.38
2022-12-20T19:22:22.558Z,98082.56
2022-12-20T19:24:49.305Z,98079.16
2022-12-20T19:27:15.932Z,98078.06
2022-12-20T19:29:42.606Z,98074.47
2022-12-20T19:32:09.361Z,98070.44
2022-12-20T19:34:35.997Z,98061.22
2022-12-20T19:37:02.720Z,98064.59
2022-12-20T19:39:29.476Z,98065.75
2022-12-20T19:44:43.421Z,98064.78
2022-12-20T19:47:10.110Z,98056.53
2022-12-20T19:49:36.956Z,98048.81
2022-12-20T19:52:03.704Z,98048.72
2022-12-20T19:54:30.430Z,98049.19
2022-12-20T19:56:57.117Z,98041.69
2022-12-20T19:59:23.845Z,98046.19
2022-12-20T20:01:50.635Z,98033.81
2022-12-20T20:04:17.360Z,98028.94
2022-12-20T20:06:44.141Z,98014.38
2022-12-20T20:09:10.836Z,98014.56
2022-12-20T20:11:37.498Z,98008.97
2022-12-20T20:14:04.193Z,98016.56
2022-12-20T20:16:30.931Z,98026.28
2022-12-20T20:18:57.687Z,98031.03
2022-12-20T20:21:24.393Z,98021.25
2022-12-20T20:23:51.113Z,98023.53
2022-12-20T20:26:17.847Z,98019.72
2022-12-20T20:28:45.669Z,98025.25
2022-12-20T20:31:12.564Z,98021.16
2022-12-20T20:33:39.318Z,98010.09
2022-12-20T20:36:06.094Z,98006.44
2022-12-20T20:38:32.762Z,98014.03
2022-12-20T20:40:59.469Z,98014.72
2022-12-20T20:43:26.208Z,98012.91
2022-12-20T20:45:52.901Z,98014.38
2022-12-20T20:48:19.598Z,98016.91
2022-12-20T20:50:46.254Z,98009.28
2022-12-20T20:53:12.883Z,98009.97
2022-12-20T20:55:39.621Z,98014.31
2022-12-20T20:58:06.324Z,98007.63
2022-12-20T21:00:32.991Z,98004.91
2022-12-20T21:02:59.841Z,98003.56
2022-12-20T21:08:13.364Z,97998.63
2022-12-20T21:10:40.105Z,97994.31
2022-12-20T21:13:06.800Z,97995.94
2022-12-20T21:15:33.459Z,97990.63
2022-12-20T21:18:00.156Z,97986.50
2022-12-20T21:20:26.883Z,97989.97
2022-12-20T21:22:53.551Z,97988.56
2022-12-20T21:25:20.226Z,97985.13
2022-12-20T21:27:46.923Z,97978.59
2022-12-20T21:30:13.641Z,97980.69
2022-12-20T21:32:40.494Z,97977.38
2022-12-20T21:35:07.167Z,97970.91
2022-12-20T21:37:33.872Z,97971.19
2022-12-20T21:40:00.530Z,97974.94
2022-12-20T21:42:27.220Z,97978.09
2022-12-20T21:44:53.899Z,97976.31
2022-12-20T21:47:20.547Z,97970.88
2022-12-20T21:49:47.256Z,97966.63
2022-12-20T21:52:14.056Z,97968.34
2022-12-20T21:54:40.753Z,97971.72
2022-12-20T21:57:07.363Z,97958.19
2022-12-20T21:59:34.047Z,97961.53
2022-12-20T22:02:01.013Z,97960.34
2022-12-20T22:04:28.106Z,97964.91
2022-12-20T22:06:54.774Z,97964.91
2022-12-20T22:09:21.402Z,97956.44
2022-12-20T22:11:48.083Z,97947.72
2022-12-20T22:14:14.748Z,97944.88
2022-12-20T22:16:41.505Z,97945.09
2022-12-20T22:19:08.276Z,97939.41
2022-12-20T22:21:35.043Z,97933.06
2022-12-20T22:24:01.732Z,97924.56
2022-12-20T22:26:28.598Z,97908.31
2022-12-20T22:28:55.275Z,97916.84
2022-12-20T22:31:21.983Z,97914.00
2022-12-20T22:33:48.717Z,97913.03
2022-12-20T22:36:15.353Z,97915.09
2022-12-20T22:38:42.249Z,97918.25
2022-12-20T22:41:08.914Z,97907.63
2022-12-20T22:43:35.582Z,97900.22
2022-12-20T22:48:46.549Z,97898.97
2022-12-20T22:51:13.191Z,97888.53
2022-12-20T22:53:39.781Z,97888.09
2022-12-20T22:56:06.375Z,97884.22
2022-12-20T22:58:32.945Z,97876.41
2022-12-20T23:00:59.584Z,97876.19
2022-12-20T23:03:26.258Z,97867.56
2022-12-20T23:05:52.990Z,97858.72
2022-12-20T23:08:19.596Z,97861.69
2022-12-20T23:10:46.231Z,97856.09
2022-12-20T23:13:12.874Z,97861.72
2022-12-20T23:15:39.482Z,97856.19
2022-12-20T23:18:06.067Z,97854.63
2022-12-20T23:20:32.664Z,97836.59
2022-12-20T23:22:59.288Z,97822.81
2022-12-20T23:25:26.086Z,97817.47
2022-12-20T23:27:52.776Z,97813.97
2022-12-20T23:30:19.592Z,97807.69
2022-12-20T23:32:46.188Z,97803.00
2022-12-20T23:35:13.059Z,97808.81
2022-12-20T23:37:39.902Z,97811.91
2022-12-20T23:40:06.717Z,97808.63
2022-12-20T23:42:33.356Z,97806.03
2022-12-20T23:44:59.934Z,97803.84
2022-12-20T23:47:26.561Z,97800.31
2022-12-20T23:49:53.290Z,97803.88
2022-12-20T23:52:19.955Z,97801.41
2022-12-20T23:54:46.582Z,97792.22
2022-12-20T23:57:13.186Z,97794.25
2022-12-20T23:59:39.915Z,97798.53
